Time;durP1;ratioP1;P1;durP2;ratioP2;P2;SDS_P1;SDS_P2;PMS_P1;PMS_P2;Temp;Humidity;BMP_temperature;BMP_pressure;BME280_temperature;BME280_humidity;BME280_pressure;Samples;Min_cycle;Max_cycle;Signal;HPM_P1;HPM_P2
2022/11/29 00:00:41;;;;;;;73.78;15.27;;;7.70;99.90;;;;;;5032670;28;20189;-88
2022/11/29 00:03:06;;;;;;;77.25;15.10;;;7.70;99.90;;;;;;5033886;28;20248;-88
2022/11/29 00:05:35;;;;;;;79.57;15.70;;;7.70;99.90;;;;;;5034127;28;20280;-88
2022/11/29 00:08:01;;;;;;;79.75;15.18;;;7.70;99.90;;;;;;5032563;28;20411;-88
2022/11/29 00:10:41;;;;;;;72.70;13.93;;;7.70;99.90;;;;;;5033705;28;20672;-88
2022/11/29 00:13:12;;;;;;;73.15;13.90;;;7.80;99.90;;;;;;5034217;28;20229;-88
2022/11/29 00:15:41;;;;;;;73.78;15.55;;;7.80;99.90;;;;;;5033870;28;20145;-88
2022/11/29 00:18:07;;;;;;;82.75;16.50;;;7.80;99.90;;;;;;5033699;28;20541;-88
2022/11/29 00:20:34;;;;;;;75.07;16.17;;;7.80;99.90;;;;;;5033648;28;20259;-88
2022/11/29 00:23:05;;;;;;;78.13;15.43;;;7.80;99.90;;;;;;5034473;28;20800;-88
2022/11/29 00:25:30;;;;;;;77.50;15.00;;;7.80;99.90;;;;;;5033479;28;20220;-88
2022/11/29 00:27:59;;;;;;;80.47;16.43;;;7.90;99.90;;;;;;5033496;28;20188;-88
2022/11/29 00:30:28;;;;;;;74.25;16.23;;;7.90;99.90;;;;;;5033427;28;20221;-88
2022/11/29 00:32:54;;;;;;;77.20;14.95;;;7.90;99.90;;;;;;5034043;28;20248;-88
2022/11/29 00:35:19;;;;;;;83.00;16.37;;;7.90;99.90;;;;;;5033442;28;20196;-88
2022/11/29 00:37:45;;;;;;;76.07;14.67;;;7.90;99.90;;;;;;5033433;28;20208;-88
2022/11/29 00:40:14;;;;;;;81.87;17.97;;;7.90;99.90;;;;;;5033354;28;20177;-88
2022/11/29 00:42:40;;;;;;;83.35;17.30;;;7.90;99.90;;;;;;5032201;28;20416;-88
2022/11/29 00:45:06;;;;;;;77.10;16.37;;;7.90;99.90;;;;;;5033232;28;20690;-88
2022/11/29 00:47:32;;;;;;;77.75;17.67;;;7.90;99.90;;;;;;5033175;28;20632;-88
2022/11/29 00:49:57;;;;;;;75.80;16.50;;;8.00;99.90;;;;;;5031950;28;20271;-88
2022/11/29 00:52:33;;;;;;;76.70;16.50;;;7.90;99.90;;;;;;5033537;28;20181;-88
2022/11/29 00:54:59;;;;;;;75.32;15.95;;;8.00;99.90;;;;;;5031969;28;20168;-88
2022/11/29 00:57:24;;;;;;;75.03;15.17;;;7.90;99.90;;;;;;5033210;28;20165;-88
2022/11/29 00:59:50;;;;;;;76.07;17.60;;;8.00;99.90;;;;;;5031830;28;20254;-88
2022/11/29 01:02:19;;;;;;;74.20;15.57;;;7.90;99.90;;;;;;5032008;28;20639;-88
2022/11/29 01:04:44;;;;;;;75.50;14.60;;;8.00;99.90;;;;;;5032849;28;20192;-88
2022/11/29 01:07:16;;;;;;;77.67;13.90;;;7.90;99.90;;;;;;5031777;28;20168;-88
2022/11/29 01:09:42;;;;;;;75.82;14.85;;;7.90;99.90;;;;;;5031781;28;20208;-88
2022/11/29 01:12:07;;;;;;;73.10;14.80;;;7.90;99.90;;;;;;5032984;28;20240;-88
2022/11/29 01:14:33;;;;;;;78.17;15.13;;;7.90;99.90;;;;;;5033399;28;20647;-88
2022/11/29 01:16:59;;;;;;;74.17;15.10;;;7.90;99.90;;;;;;5033219;28;20165;-88
2022/11/29 01:19:24;;;;;;;78.33;16.63;;;7.90;99.90;;;;;;5033160;28;20165;-88
2022/11/29 01:21:50;;;;;;;80.20;16.13;;;8.00;99.90;;;;;;5032903;28;20184;-88
2022/11/29 01:24:16;;;;;;;73.10;16.13;;;8.00;99.90;;;;;;5031922;28;20176;-88
2022/11/29 01:26:41;;;;;;;73.60;14.73;;;8.00;99.90;;;;;;5031624;28;20176;-88
2022/11/29 01:29:10;;;;;;;76.07;15.60;;;8.00;99.90;;;;;;5032794;28;20166;-88
2022/11/29 01:31:35;;;;;;;74.70;15.07;;;8.00;99.90;;;;;;5032721;28;20193;-88
2022/11/29 01:34:06;;;;;;;79.37;17.30;;;8.00;99.90;;;;;;5031697;28;20172;-88
2022/11/29 01:36:32;;;;;;;76.10;16.63;;;8.00;99.90;;;;;;5033104;28;20150;-88
2022/11/29 01:39:00;;;;;;;77.88;17.50;;;8.00;99.90;;;;;;5033042;28;20177;-88
2022/11/29 01:41:28;;;;;;;81.32;16.45;;;8.00;99.90;;;;;;5031685;28;20276;-88
2022/11/29 01:43:53;;;;;;;73.95;14.90;;;8.00;99.90;;;;;;5031936;28;20259;-88
2022/11/29 01:46:19;;;;;;;83.73;15.73;;;8.00;99.90;;;;;;5032628;28;20196;-88
2022/11/29 01:48:45;;;;;;;75.63;15.20;;;8.00;99.90;;;;;;5032720;28;20161;-88
2022/11/29 01:51:11;;;;;;;79.70;14.90;;;8.00;99.90;;;;;;5032599;28;20720;-88
2022/11/29 01:53:37;;;;;;;78.77;16.20;;;7.90;99.90;;;;;;5032914;28;20156;-88
2022/11/29 01:56:04;;;;;;;77.30;14.45;;;7.90;99.90;;;;;;5032632;28;20399;-88
2022/11/29 01:58:32;;;;;;;80.47;15.45;;;7.90;99.90;;;;;;5032860;28;20569;-88
2022/11/29 02:00:59;;;;;;;76.88;16.33;;;7.90;99.90;;;;;;5031567;28;20255;-88
2022/11/29 02:03:25;;;;;;;79.40;16.35;;;8.00;99.90;;;;;;5032531;28;20173;-88
2022/11/29 02:05:54;;;;;;;80.45;16.30;;;8.00;99.90;;;;;;5032487;28;20189;-88
2022/11/29 02:08:28;;;;;;;79.15;16.13;;;8.00;99.90;;;;;;5033091;28;20219;-88
2022/11/29 02:11:18;;;;;;;80.20;16.75;;;8.00;99.90;;;;;;5031209;28;20262;-88
2022/11/29 02:14:19;;;;;;;80.65;16.10;;;8.00;99.90;;;;;;5032386;28;20150;-88
2022/11/29 02:17:07;;;;;;;83.13;15.93;;;8.00;99.90;;;;;;5035500;28;20145;-88
2022/11/29 02:20:06;;;;;;;85.13;17.30;;;8.00;99.90;;;;;;5034669;28;20586;-88
2022/11/29 02:22:48;;;;;;;84.05;16.30;;;8.00;99.90;;;;;;5036499;28;20164;-88
2022/11/29 02:25:42;;;;;;;81.30;17.10;;;8.00;99.90;;;;;;5035831;28;20181;-88
2022/11/29 02:28:41;;;;;;;79.95;14.65;;;8.10;99.90;;;;;;5036417;28;20164;-88
2022/11/29 02:31:36;;;;;;;81.20;15.02;;;8.10;99.90;;;;;;5035808;28;20554;-88
2022/11/29 02:34:17;;;;;;;82.72;17.35;;;8.10;99.90;;;;;;5035809;28;20511;-88
2022/11/29 02:37:20;;;;;;;85.07;16.77;;;8.10;99.90;;;;;;5035909;28;20527;-87
2022/11/29 02:40:04;;;;;;;81.97;15.68;;;8.10;99.90;;;;;;5034029;28;20283;-87
2022/11/29 02:42:48;;;;;;;74.00;15.32;;;8.10;99.90;;;;;;5034987;28;20173;-87
2022/11/29 02:45:40;;;;;;;76.03;16.83;;;8.10;99.90;;;;;;5036165;28;20177;-87
2022/11/29 02:48:49;;;;;;;82.57;16.90;;;8.10;99.90;;;;;;5033111;28;20209;-87
2022/11/29 02:51:38;;;;;;;76.72;13.82;;;8.10;99.90;;;;;;5034528;28;20232;-87
2022/11/29 02:54:19;;;;;;;85.35;16.27;;;8.10;99.90;;;;;;5035292;28;20696;-87
2022/11/29 02:56:51;;;;;;;77.90;15.18;;;8.10;99.90;;;;;;5034015;28;20192;-88
2022/11/29 02:59:35;;;;;;;81.43;15.48;;;8.20;99.90;;;;;;5035180;28;20161;-87
2022/11/29 03:02:16;;;;;;;86.10;17.52;;;8.20;99.90;;;;;;5035182;28;20169;-87
2022/11/29 03:05:16;;;;;;;91.90;17.65;;;8.30;99.90;;;;;;5035379;28;20185;-87
2022/11/29 03:07:42;;;;;;;83.70;18.77;;;8.30;99.90;;;;;;5016679;28;20346;-87
2022/11/29 03:10:28;;;;;;;81.83;17.60;;;8.40;99.90;;;;;;5034968;28;20268;-88
2022/11/29 03:12:57;;;;;;;80.10;16.95;;;8.40;99.90;;;;;;5033756;28;20159;-88
2022/11/29 03:15:34;;;;;;;85.03;18.17;;;8.30;99.90;;;;;;5035154;28;20672;-88
2022/11/29 03:18:18;;;;;;;81.90;18.92;;;8.40;99.90;;;;;;5033764;28;20223;-88
2022/11/29 03:20:57;;;;;;;84.30;17.77;;;8.40;99.90;;;;;;5034722;28;20191;-88
2022/11/29 03:23:31;;;;;;;88.00;15.93;;;8.40;99.90;;;;;;5033553;28;20523;-88
2022/11/29 03:26:08;;;;;;;86.78;17.00;;;8.30;99.90;;;;;;5033503;28;20182;-88
2022/11/29 03:29:06;;;;;;;83.45;16.65;;;8.30;99.90;;;;;;5033541;28;20168;-88
2022/11/29 03:31:42;;;;;;;86.57;18.15;;;8.30;99.90;;;;;;5034166;28;20185;-88
2022/11/29 03:34:16;;;;;;;83.28;18.08;;;8.30;99.90;;;;;;5033317;28;20634;-87
2022/11/29 03:37:02;;;;;;;92.53;18.08;;;8.40;99.90;;;;;;5034530;28;20157;-87
2022/11/29 03:39:43;;;;;;;95.22;18.63;;;8.40;99.90;;;;;;5034694;28;20236;-87
2022/11/29 03:42:19;;;;;;;94.72;19.15;;;8.40;99.90;;;;;;5034375;28;20165;-87
2022/11/29 03:44:52;;;;;;;94.00;16.98;;;8.40;99.90;;;;;;5033020;28;20188;-87
2022/11/29 03:47:29;;;;;;;102.40;19.23;;;8.50;99.90;;;;;;5034668;28;20515;-87
2022/11/29 03:50:15;;;;;;;88.38;17.75;;;8.50;99.90;;;;;;5034528;28;20666;-88
2022/11/29 03:53:06;;;;;;;96.13;19.92;;;8.50;99.90;;;;;;5034090;28;20177;-88
2022/11/29 03:56:12;;;;;;;101.78;19.85;;;8.50;99.90;;;;;;5033400;28;20166;-88
2022/11/29 03:58:49;;;;;;;112.80;18.65;;;8.50;99.90;;;;;;5033287;28;20185;-88
2022/11/29 04:01:20;;;;;;;104.50;21.40;;;8.50;99.90;;;;;;5033122;28;20280;-88
2022/11/29 04:04:27;;;;;;;97.38;19.45;;;8.50;99.90;;;;;;5033052;28;20173;-88
2022/11/29 04:07:11;;;;;;;88.82;18.45;;;8.50;99.90;;;;;;5034036;28;20646;-88
2022/11/29 04:09:58;;;;;;;107.55;18.17;;;8.50;99.90;;;;;;5032559;28;20201;-88
2022/11/29 04:13:01;;;;;;;96.57;20.38;;;8.50;99.90;;;;;;5032940;28;20655;-88
2022/11/29 04:15:48;;;;;;;96.65;19.27;;;8.50;99.90;;;;;;5034014;28;20180;-87
2022/11/29 04:18:35;;;;;;;102.85;22.27;;;8.50;99.90;;;;;;5033763;28;20157;-87
2022/11/29 04:21:16;;;;;;;93.95;19.70;;;8.50;99.90;;;;;;5032483;28;20234;-88
2022/11/29 04:23:57;;;;;;;97.60;20.92;;;8.60;99.90;;;;;;5032845;28;20169;-88
2022/11/29 04:26:57;;;;;;;102.65;21.05;;;8.60;99.90;;;;;;5032407;28;20181;-88
2022/11/29 04:29:31;;;;;;;109.07;24.05;;;8.60;99.90;;;;;;5034056;28;20168;-88
2022/11/29 04:32:18;;;;;;;124.05;23.23;;;8.60;99.90;;;;;;5034573;28;20164;-88
2022/11/29 04:35:02;;;;;;;119.65;24.77;;;8.50;99.90;;;;;;5033789;28;20252;-88
2022/11/29 04:37:36;;;;;;;105.75;25.33;;;8.50;99.90;;;;;;5032814;28;20662;-88
2022/11/29 04:40:08;;;;;;;107.30;25.23;;;8.60;99.90;;;;;;5033479;28;20558;-88
2022/11/29 04:42:40;;;;;;;104.85;25.63;;;8.60;99.90;;;;;;5033376;28;20192;-88
2022/11/29 04:45:11;;;;;;;123.85;25.95;;;8.60;99.90;;;;;;5033401;28;20195;-88
2022/11/29 04:47:59;;;;;;;104.85;26.15;;;8.70;99.90;;;;;;5033315;28;20162;-88
2022/11/29 04:50:45;;;;;;;113.05;27.17;;;8.70;99.90;;;;;;5032889;28;20262;-88
2022/11/29 04:53:37;;;;;;;110.50;25.23;;;8.70;99.90;;;;;;5033344;28;20610;-88
2022/11/29 04:56:25;;;;;;;106.28;26.58;;;8.60;99.90;;;;;;5033571;28;20203;-87
2022/11/29 04:59:15;;;;;;;118.60;27.15;;;8.70;99.90;;;;;;5033174;28;20601;-87
2022/11/29 05:01:55;;;;;;;119.32;25.27;;;8.60;99.90;;;;;;5031899;28;20266;-88
2022/11/29 05:04:20;;;;;;;107.50;28.00;;;8.60;99.90;;;;;;5033120;28;20519;-88
2022/11/29 05:07:04;;;;;;;116.50;29.23;;;8.70;99.90;;;;;;5033059;28;20161;-88
2022/11/29 05:09:50;;;;;;;115.95;27.17;;;8.60;99.90;;;;;;5033183;28;20173;-88
2022/11/29 05:13:08;;;;;;;122.13;28.95;;;8.70;99.90;;;;;;5033013;28;20161;-88
2022/11/29 05:15:48;;;;;;;118.75;29.23;;;8.70;99.90;;;;;;5030880;28;20662;-88
2022/11/29 05:18:48;;;;;;;133.15;31.40;;;8.70;99.90;;;;;;5033559;28;20240;-88
2022/11/29 05:21:30;;;;;;;123.57;30.15;;;8.70;99.90;;;;;;5033134;28;20267;-88
2022/11/29 05:24:14;;;;;;;122.47;29.13;;;8.70;99.90;;;;;;5031779;28;20257;-88
2022/11/29 05:27:03;;;;;;;122.47;28.75;;;8.80;99.90;;;;;;5033230;28;20240;-88
2022/11/29 05:29:46;;;;;;;116.53;29.08;;;8.70;99.90;;;;;;5032796;28;20182;-88
2022/11/29 05:32:37;;;;;;;119.38;27.85;;;8.70;99.90;;;;;;5031638;28;20165;-88
2022/11/29 05:35:31;;;;;;;121.63;27.55;;;8.70;99.90;;;;;;5031841;28;20154;-87
2022/11/29 05:38:06;;;;;;;110.47;26.48;;;8.70;99.90;;;;;;5032373;28;20619;-88
2022/11/29 05:40:31;;;;;;;132.82;27.63;;;8.80;99.90;;;;;;5031859;28;20737;-88
2022/11/29 05:43:10;;;;;;;121.53;26.30;;;8.80;99.90;;;;;;5032777;28;20244;-88
2022/11/29 05:46:00;;;;;;;122.00;28.38;;;8.80;99.90;;;;;;5032979;28;20544;-88
2022/11/29 05:48:35;;;;;;;122.05;27.00;;;8.80;99.90;;;;;;5033089;28;20233;-88
2022/11/29 06:04:27;;;;;;;127.50;25.65;;;8.70;99.90;;;;;;4193217;26;20207;-91
2022/11/29 06:07:44;;;;;;;120.07;27.45;;;8.70;99.90;;;;;;5018075;28;20196;-91
2022/11/29 06:36:34;;;;;;;140.52;28.08;;;8.70;99.90;;;;;;4998959;28;20225;-93
2022/11/29 06:39:40;;;;;;;129.57;28.88;;;8.70;99.90;;;;;;4977014;28;20556;-92
2022/11/29 06:43:10;;;;;;;140.10;27.65;;;8.70;99.90;;;;;;4981148;28;20174;-93
2022/11/29 06:46:46;;;;;;;145.40;28.20;;;8.70;99.90;;;;;;4980363;28;20194;-93
2022/11/29 06:57:39;;;;;;;148.40;32.55;;;8.60;99.90;;;;;;5411383;22;20229;-90
2022/11/29 07:04:05;;;;;;;145.90;31.02;;;8.60;99.90;;;;;;4975008;28;20211;-90
2022/11/29 07:06:56;;;;;;;159.38;28.80;;;8.60;99.90;;;;;;5051592;28;20220;-92
2022/11/29 07:10:12;;;;;;;;;;;;;;;;;;;;;
2022/11/29 07:13:31;;;;;;;145.63;32.13;;;8.60;99.90;;;;;;5030922;28;20189;-92
2022/11/29 07:19:48;;;;;;;150.48;29.73;;;8.50;99.90;;;;;;5033833;28;20188;-93
2022/11/29 07:22:59;;;;;;;;;;;;;;;;;;;;;
2022/11/29 07:25:36;;;;;;;145.45;29.55;;;8.50;99.90;;;;;;5033436;28;20196;-91
2022/11/29 07:28:17;;;;;;;161.02;30.75;;;8.50;99.90;;;;;;5033192;28;20232;-91
2022/11/29 07:30:51;;;;;;;160.05;29.52;;;8.50;99.90;;;;;;5034463;28;20228;-88
2022/11/29 07:33:28;;;;;;;164.85;31.95;;;8.50;99.90;;;;;;5034811;28;20172;-88
2022/11/29 07:36:07;;;;;;;179.80;32.30;;;8.50;99.90;;;;;;5033762;28;20176;-88
2022/11/29 07:39:12;;;;;;;167.43;34.00;;;8.50;99.90;;;;;;5038401;28;20567;-91
2022/11/29 07:48:47;;;;;;;160.00;30.92;;;8.60;99.90;;;;;;5019623;28;20249;-91
2022/11/29 07:51:49;;;;;;;154.05;32.42;;;8.70;99.90;;;;;;4979447;28;20254;-91
2022/11/29 07:54:48;;;;;;;162.45;29.25;;;8.60;99.90;;;;;;4957031;28;20183;-91
2022/11/29 07:57:27;;;;;;;136.30;29.98;;;8.70;99.90;;;;;;5001707;28;20212;-91
2022/11/29 08:00:28;;;;;;;143.50;31.05;;;8.70;99.90;;;;;;5002465;28;20186;-91
2022/11/29 08:03:35;;;;;;;;;;;;;;;;;;;;;
2022/11/29 08:06:53;;;;;;;;;;;;;;;;;;;;;
2022/11/29 08:09:11;;;;;;;151.20;27.67;;;8.70;99.90;;;;;;5012573;28;20254;-90
2022/11/29 08:11:47;;;;;;;150.85;29.80;;;8.70;99.90;;;;;;5000626;28;20189;-91
2022/11/29 08:14:23;;;;;;;172.25;31.02;;;8.70;99.90;;;;;;4999118;28;20257;-90
2022/11/29 08:16:57;;;;;;;158.10;31.30;;;8.70;99.90;;;;;;5035282;28;20176;-90
2022/11/29 08:19:30;;;;;;;166.85;31.63;;;8.80;99.90;;;;;;5035553;28;20215;-91
2022/11/29 08:22:23;;;;;;;154.23;30.48;;;8.80;99.90;;;;;;5034634;28;20626;-88
2022/11/29 08:25:04;;;;;;;167.30;32.10;;;8.80;99.90;;;;;;5025747;28;20213;-88
2022/11/29 08:31:02;;;;;;;159.13;31.50;;;8.80;99.90;;;;;;5032622;28;20581;-88
2022/11/29 08:33:28;;;;;;;172.05;34.97;;;8.80;99.90;;;;;;5033346;28;20209;-88
2022/11/29 08:35:54;;;;;;;155.88;30.67;;;8.70;99.90;;;;;;5034863;28;20165;-88
2022/11/29 08:38:21;;;;;;;149.57;31.27;;;8.80;99.90;;;;;;5032943;28;20575;-88
2022/11/29 08:40:47;;;;;;;167.07;30.55;;;8.80;99.90;;;;;;5033264;28;20712;-88
2022/11/29 08:43:16;;;;;;;173.47;33.70;;;8.80;99.90;;;;;;5033840;28;20172;-88
2022/11/29 08:45:53;;;;;;;152.82;31.50;;;8.80;99.90;;;;;;5034330;28;20451;-88
2022/11/29 08:48:19;;;;;;;146.48;27.23;;;8.90;99.90;;;;;;5032751;28;20157;-88
2022/11/29 08:51:03;;;;;;;140.43;29.43;;;9.00;99.90;;;;;;5032971;28;20220;-88
2022/11/29 08:53:41;;;;;;;159.15;31.23;;;9.10;99.90;;;;;;5033179;28;20172;-88
2022/11/29 08:56:25;;;;;;;147.43;29.20;;;9.10;99.90;;;;;;5033379;28;20626;-88
2022/11/29 08:58:53;;;;;;;139.45;29.92;;;9.10;99.90;;;;;;5034175;28;20519;-90
2022/11/29 09:01:21;;;;;;;146.15;31.25;;;9.10;99.90;;;;;;5032351;28;20197;-90
2022/11/29 09:04:01;;;;;;;144.98;30.83;;;9.20;99.90;;;;;;5033454;28;20179;-90
2022/11/29 09:06:30;;;;;;;147.05;29.38;;;9.20;99.90;;;;;;5033695;28;20220;-90
2022/11/29 09:08:57;;;;;;;143.45;29.40;;;9.20;99.90;;;;;;5033193;28;20172;-90
2022/11/29 09:11:28;;;;;;;146.27;29.45;;;9.20;99.90;;;;;;5033551;28;20607;-90
2022/11/29 09:13:59;;;;;;;150.25;28.95;;;9.20;99.90;;;;;;5033486;28;20157;-90
2022/11/29 09:16:32;;;;;;;132.55;27.83;;;9.20;99.90;;;;;;5032163;28;20284;-90
2022/11/29 09:18:58;;;;;;;140.23;27.80;;;9.20;99.90;;;;;;5033980;28;20633;-90
2022/11/29 09:21:29;;;;;;;127.93;30.87;;;9.20;99.90;;;;;;5032020;28;20291;-90
2022/11/29 09:24:05;;;;;;;146.43;27.75;;;9.20;99.90;;;;;;5033037;28;20177;-90
2022/11/29 09:26:39;;;;;;;152.43;30.10;;;9.20;99.90;;;;;;5037239;28;20187;-90
2022/11/29 09:29:05;;;;;;;142.45;30.50;;;9.30;99.90;;;;;;5036643;28;20196;-90
2022/11/29 09:31:37;;;;;;;133.55;30.35;;;9.30;99.90;;;;;;5036293;28;20185;-90
2022/11/29 09:34:03;;;;;;;158.55;29.05;;;9.30;99.90;;;;;;5037688;28;20228;-90
2022/11/29 09:36:32;;;;;;;144.33;30.10;;;9.20;99.90;;;;;;5036323;28;20250;-90
2022/11/29 09:39:01;;;;;;;139.82;27.67;;;9.30;99.90;;;;;;5037026;28;20669;-90
2022/11/29 09:41:36;;;;;;;148.70;31.25;;;9.30;99.90;;;;;;5037222;28;20185;-89
2022/11/29 09:44:27;;;;;;;147.77;28.08;;;9.30;99.90;;;;;;5037216;28;20549;-90
2022/11/29 09:47:31;;;;;;;130.30;29.58;;;9.20;99.90;;;;;;5037599;28;20153;-90
2022/11/29 09:50:35;;;;;;;140.23;31.90;;;9.20;99.90;;;;;;5035587;28;20588;-90
2022/11/29 09:53:19;;;;;;;151.80;29.27;;;9.20;99.90;;;;;;5035617;28;20263;-89
2022/11/29 09:56:27;;;;;;;157.30;31.10;;;9.20;99.90;;;;;;5036830;28;20165;-89
2022/11/29 09:59:16;;;;;;;137.45;32.05;;;9.20;99.90;;;;;;5035745;28;20195;-89
2022/11/29 10:01:52;;;;;;;138.88;31.23;;;9.20;99.90;;;;;;5036844;28;20205;-90
2022/11/29 10:04:22;;;;;;;146.52;29.60;;;9.20;99.90;;;;;;5020404;28;20601;-90
2022/11/29 10:07:26;;;;;;;157.20;31.90;;;9.20;99.90;;;;;;5035390;28;20181;-90
2022/11/29 10:10:27;;;;;;;152.05;30.25;;;9.10;99.90;;;;;;5024744;28;20230;-90
2022/11/29 10:12:59;;;;;;;147.25;30.05;;;9.20;99.90;;;;;;5035228;28;20175;-89
2022/11/29 10:15:28;;;;;;;154.65;28.48;;;9.20;99.90;;;;;;5037477;28;20166;-89
2022/11/29 10:18:10;;;;;;;148.25;30.45;;;9.30;99.90;;;;;;5035565;28;20165;-90
2022/11/29 10:20:48;;;;;;;143.90;32.00;;;9.30;99.90;;;;;;5035206;28;20196;-90
2022/11/29 10:23:47;;;;;;;142.38;31.60;;;9.30;99.90;;;;;;5035025;28;20175;-89
2022/11/29 10:26:13;;;;;;;164.40;31.65;;;9.40;99.90;;;;;;5036491;28;20185;-89
2022/11/29 10:28:47;;;;;;;134.77;30.67;;;9.30;99.90;;;;;;5036448;28;20161;-89
2022/11/29 10:31:23;;;;;;;145.13;30.52;;;9.30;99.90;;;;;;5034793;28;20275;-90
2022/11/29 10:33:50;;;;;;;144.32;32.33;;;9.40;99.90;;;;;;5036043;28;20138;-90
2022/11/29 10:36:40;;;;;;;140.25;31.20;;;9.40;99.90;;;;;;5034089;28;20566;-89
2022/11/29 10:39:13;;;;;;;141.52;30.15;;;9.40;99.90;;;;;;5035083;28;20166;-89
2022/11/29 10:41:41;;;;;;;125.25;29.65;;;9.50;99.90;;;;;;5035765;28;20634;-90
2022/11/29 10:44:13;;;;;;;129.93;27.00;;;9.40;99.90;;;;;;5034667;28;20173;-90
2022/11/29 10:46:40;;;;;;;126.53;28.77;;;9.40;99.90;;;;;;5036383;28;20205;-89
2022/11/29 10:49:10;;;;;;;119.47;28.30;;;9.40;99.90;;;;;;5034427;28;20543;-89
2022/11/29 10:51:39;;;;;;;121.75;26.40;;;9.30;99.90;;;;;;5034464;28;20185;-90
2022/11/29 10:54:35;;;;;;;120.03;27.40;;;9.30;99.90;;;;;;5035592;28;20166;-89
2022/11/29 10:57:25;;;;;;;117.45;26.85;;;9.30;99.90;;;;;;5035946;28;20150;-89
2022/11/29 11:00:23;;;;;;;114.53;23.20;;;9.30;99.90;;;;;;5034912;28;20280;-89
2022/11/29 11:02:49;;;;;;;112.25;24.70;;;9.40;99.90;;;;;;5038111;28;20181;-90
2022/11/29 11:05:28;;;;;;;123.00;26.77;;;9.40;99.90;;;;;;5034336;28;20700;-89
2022/11/29 11:07:57;;;;;;;127.53;27.75;;;9.40;99.90;;;;;;5035673;28;20146;-89
2022/11/29 11:10:27;;;;;;;111.30;25.08;;;9.40;99.90;;;;;;5033924;28;20189;-90
2022/11/29 11:13:06;;;;;;;119.22;24.05;;;9.50;99.90;;;;;;5035529;28;20566;-90
2022/11/29 11:15:32;;;;;;;121.10;23.27;;;9.40;99.90;;;;;;5034453;28;20197;-89
2022/11/29 11:18:05;;;;;;;119.28;25.02;;;9.40;99.90;;;;;;5035288;28;20204;-89
2022/11/29 11:20:38;;;;;;;107.05;24.83;;;9.50;99.90;;;;;;5034427;28;20189;-89
2022/11/29 11:23:27;;;;;;;103.55;20.75;;;9.50;99.90;;;;;;5034494;28;20176;-90
2022/11/29 11:26:07;;;;;;;116.05;25.25;;;9.60;99.90;;;;;;5035982;28;20208;-90
2022/11/29 11:28:37;;;;;;;116.32;23.80;;;9.70;99.90;;;;;;5034101;28;20165;-90
2022/11/29 11:31:11;;;;;;;107.03;19.90;;;9.70;99.90;;;;;;5035352;28;20188;-90
2022/11/29 11:33:44;;;;;;;110.93;22.83;;;9.70;99.90;;;;;;5033924;28;20618;-90
2022/11/29 11:36:19;;;;;;;113.80;22.15;;;9.80;99.90;;;;;;5035625;28;20158;-90
2022/11/29 11:39:08;;;;;;;127.93;31.13;;;9.90;99.90;;;;;;5035143;28;20160;-90
2022/11/29 11:44:39;;;;;;;105.95;20.33;;;9.90;99.90;;;;;;5035442;28;20164;-90
2022/11/29 11:47:12;;;;;;;112.45;21.70;;;9.90;99.90;;;;;;5142623;22;20211;-89
2022/11/29 11:50:08;;;;;;;;;;;;;;;;;;;;;
2022/11/29 11:52:40;;;;;;;100.82;19.52;;;10.00;99.90;;;;;;5149079;22;20563;-86
2022/11/29 11:55:31;;;;;;;108.45;19.27;;;10.20;99.90;;;;;;5035669;28;20196;-86
2022/11/29 11:58:15;;;;;;;108.75;21.00;;;10.30;99.90;;;;;;5034133;28;20161;-86
2022/11/29 12:00:57;;;;;;;105.95;22.40;;;10.40;99.90;;;;;;5034733;28;20192;-86
2022/11/29 12:03:31;;;;;;;117.07;23.52;;;10.50;99.90;;;;;;5036617;28;20161;-86
2022/11/29 12:06:15;;;;;;;112.25;23.42;;;10.50;99.90;;;;;;5036625;28;20188;-86
2022/11/29 12:08:41;;;;;;;108.20;24.52;;;10.40;99.90;;;;;;5036991;28;20149;-85
2022/11/29 12:11:12;;;;;;;110.40;23.08;;;10.40;99.90;;;;;;5036049;28;20276;-85
2022/11/29 12:13:46;;;;;;;114.13;25.95;;;10.30;99.90;;;;;;5036567;28;20153;-86
2022/11/29 12:16:27;;;;;;;123.20;25.60;;;10.30;99.90;;;;;;5036887;28;20153;-86
2022/11/29 12:19:13;;;;;;;114.05;26.15;;;10.20;99.90;;;;;;5035557;28;20207;-86
2022/11/29 12:21:43;;;;;;;109.00;26.15;;;10.20;99.90;;;;;;5036420;28;20185;-86
2022/11/29 12:24:12;;;;;;;104.85;24.27;;;10.30;99.90;;;;;;5036613;28;20203;-86
2022/11/29 12:26:40;;;;;;;106.68;23.40;;;10.30;99.90;;;;;;5035381;28;20243;-86
2022/11/29 12:29:17;;;;;;;111.60;27.38;;;10.20;99.90;;;;;;5037457;28;20154;-86
2022/11/29 12:31:42;;;;;;;106.43;24.65;;;10.10;99.90;;;;;;5038031;28;20146;-86
2022/11/29 12:34:20;;;;;;;116.83;26.00;;;10.10;99.90;;;;;;5036720;28;20180;-86
2022/11/29 12:37:10;;;;;;;113.55;24.70;;;10.10;99.90;;;;;;5035998;28;20164;-85
2022/11/29 12:39:56;;;;;;;112.13;25.98;;;10.00;99.90;;;;;;5037478;28;20150;-85
2022/11/29 12:42:40;;;;;;;109.30;24.98;;;10.00;99.90;;;;;;5037639;28;20173;-86
2022/11/29 12:45:40;;;;;;;106.43;22.40;;;9.90;99.90;;;;;;5037598;28;20192;-86
2022/11/29 12:48:15;;;;;;;108.97;22.55;;;9.80;99.90;;;;;;5025973;28;20268;-86
2022/11/29 12:51:11;;;;;;;112.28;25.55;;;9.70;99.90;;;;;;5037642;28;20187;-85
2022/11/29 12:54:20;;;;;;;116.95;24.27;;;9.80;99.90;;;;;;5036806;28;20185;-86
2022/11/29 12:57:05;;;;;;;120.30;24.15;;;9.70;99.90;;;;;;5038139;28;20176;-86
2022/11/29 13:00:10;;;;;;;123.72;26.70;;;9.70;99.90;;;;;;5036449;28;20598;-86
2022/11/29 13:03:09;;;;;;;115.32;25.45;;;9.70;99.90;;;;;;5037188;28;20177;-86
2022/11/29 13:05:40;;;;;;;115.07;25.67;;;9.60;99.90;;;;;;5037576;28;20216;-86
2022/11/29 13:08:22;;;;;;;121.22;27.45;;;9.60;99.90;;;;;;5036371;28;20164;-85
2022/11/29 13:10:51;;;;;;;126.75;29.02;;;9.60;99.90;;;;;;5038135;28;20270;-86
2022/11/29 13:13:35;;;;;;;120.88;28.52;;;9.70;99.90;;;;;;5036847;28;20187;-85
2022/11/29 13:16:34;;;;;;;129.02;30.70;;;9.60;99.90;;;;;;5036614;28;20542;-86
2022/11/29 13:19:32;;;;;;;123.85;29.13;;;9.50;99.90;;;;;;5037772;28;20272;-85
2022/11/29 13:22:13;;;;;;;119.68;26.70;;;9.40;99.90;;;;;;5036293;28;20554;-86
2022/11/29 13:24:52;;;;;;;124.00;28.80;;;9.50;99.90;;;;;;5036670;28;20173;-86
2022/11/29 13:27:23;;;;;;;123.22;30.05;;;9.50;99.90;;;;;;5038185;28;20495;-86
2022/11/29 13:29:49;;;;;;;118.68;30.90;;;9.40;99.90;;;;;;5038635;28;20608;-86
2022/11/29 13:32:35;;;;;;;127.75;32.10;;;9.40;99.90;;;;;;5037110;28;20165;-85
2022/11/29 13:35:18;;;;;;;138.43;32.70;;;9.30;99.90;;;;;;5036810;28;20649;-86
2022/11/29 13:37:54;;;;;;;147.63;32.92;;;9.40;99.90;;;;;;5036810;28;20165;-86
2022/11/29 13:40:51;;;;;;;125.88;31.77;;;9.30;99.90;;;;;;5037238;28;20267;-86
2022/11/29 13:43:44;;;;;;;120.72;26.98;;;9.30;99.90;;;;;;5037735;28;20169;-85
2022/11/29 13:46:18;;;;;;;127.78;30.40;;;9.30;99.90;;;;;;5038379;28;20177;-86
2022/11/29 13:48:52;;;;;;;121.03;27.38;;;9.40;99.90;;;;;;5037796;28;20145;-86
2022/11/29 13:51:32;;;;;;;125.50;29.27;;;9.40;99.90;;;;;;5037591;28;20181;-86
2022/11/29 13:54:04;;;;;;;131.60;30.20;;;9.40;99.90;;;;;;5037890;28;20169;-86
2022/11/29 13:56:52;;;;;;;134.63;31.75;;;9.30;99.90;;;;;;5036963;28;20180;-86
2022/11/29 13:59:28;;;;;;;157.90;32.88;;;9.30;99.90;;;;;;5036733;28;20184;-86
2022/11/29 14:01:54;;;;;;;125.05;29.23;;;9.30;99.90;;;;;;5038487;28;20160;-85
2022/11/29 14:04:38;;;;;;;134.65;33.53;;;9.30;99.90;;;;;;5036581;28;20179;-85
2022/11/29 14:07:19;;;;;;;137.25;33.05;;;9.40;99.90;;;;;;5037337;28;20173;-86
2022/11/29 14:10:05;;;;;;;143.25;33.10;;;9.40;99.90;;;;;;5036627;28;20188;-85
2022/11/29 14:12:52;;;;;;;121.10;30.98;;;9.40;99.90;;;;;;5041112;28;20184;-85
2022/11/29 14:15:32;;;;;;;126.38;27.77;;;9.40;99.90;;;;;;5042311;28;20154;-86
2022/11/29 14:18:02;;;;;;;127.95;54.13;;;9.50;99.90;;;;;;5041771;28;20168;-86
2022/11/29 14:20:31;;;;;;;112.78;25.65;;;9.50;99.90;;;;;;5042195;28;20681;-85
2022/11/29 14:23:03;;;;;;;117.97;25.73;;;9.50;99.90;;;;;;5040732;28;20173;-86
2022/11/29 14:25:36;;;;;;;123.82;26.98;;;9.50;99.90;;;;;;5042111;28;20554;-85
2022/11/29 14:28:14;;;;;;;123.82;29.63;;;9.50;99.90;;;;;;5042208;28;20150;-86
2022/11/29 14:30:42;;;;;;;130.25;29.30;;;9.40;99.90;;;;;;5041708;28;20192;-85
2022/11/29 14:33:14;;;;;;;129.38;29.42;;;9.40;99.90;;;;;;5040472;28;20189;-86
2022/11/29 14:36:16;;;;;;;126.40;30.23;;;9.40;99.90;;;;;;5041681;28;20192;-86
2022/11/29 14:39:07;;;;;;;134.52;28.92;;;9.40;99.90;;;;;;5042220;28;20165;-86
2022/11/29 14:41:54;;;;;;;129.80;32.60;;;9.40;99.90;;;;;;5041231;28;20200;-86
2022/11/29 14:44:29;;;;;;;130.00;29.58;;;9.40;99.90;;;;;;5040744;28;20169;-85
2022/11/29 14:47:30;;;;;;;124.68;27.50;;;9.40;99.90;;;;;;5040898;28;20193;-85